Time;durP1;ratioP1;P1;durP2;ratioP2;P2;SDS_P1;SDS_P2;PMS_P1;PMS_P2;Temp;Humidity;BMP_temperature;BMP_pressure;BME280_temperature;BME280_humidity;BME280_pressure;Samples;Min_cycle;Max_cycle;Signal;HPM_P1;HPM_P2
2022/07/22 00:02:14;;;;;;;5.15;2.80;;;;;;;18.33;80.95;99217.13;1735972;82;21061;-80
2022/07/22 00:04:41;;;;;;;3.47;3.08;;;;;;;18.30;81.39;99214.69;1736083;82;21166;-81
2022/07/22 00:07:08;;;;;;;4.00;3.58;;;;;;;18.25;81.42;99210.17;1736216;82;21111;-81
2022/07/22 00:09:35;;;;;;;3.80;3.50;;;;;;;18.25;81.72;99220.33;1736121;82;21121;-81
2022/07/22 00:12:03;;;;;;;8.35;3.65;;;;;;;18.24;81.80;99221.77;1735950;82;21095;-80
2022/07/22 00:14:32;;;;;;;4.10;3.30;;;;;;;18.18;82.06;99222.58;1736071;82;21123;-81
2022/07/22 00:16:58;;;;;;;3.52;3.22;;;;;;;18.15;82.05;99232.11;1736043;82;21107;-79
2022/07/22 00:19:24;;;;;;;4.80;3.17;;;;;;;18.13;82.36;99231.37;1736230;82;21123;-79
2022/07/22 00:21:52;;;;;;;4.50;3.37;;;;;;;18.10;82.20;99230.73;1736243;82;21135;-80
2022/07/22 00:24:18;;;;;;;5.58;3.85;;;;;;;18.08;82.25;99232.17;1735988;82;21130;-81
2022/07/22 00:26:44;;;;;;;5.60;3.40;;;;;;;18.06;82.46;99226.61;1736173;82;22035;-80
2022/07/22 00:29:11;;;;;;;3.85;3.35;;;;;;;18.04;82.45;99229.83;1742803;82;21071;-81
2022/07/22 00:31:39;;;;;;;5.35;3.55;;;;;;;18.01;82.69;99234.91;1744275;82;21658;-79
2022/07/22 00:34:06;;;;;;;5.20;3.42;;;;;;;17.96;82.88;99237.88;1744324;82;21205;-80
2022/07/22 00:36:33;;;;;;;4.28;3.15;;;;;;;17.91;83.05;99243.16;1744374;82;21068;-79
2022/07/22 00:38:59;;;;;;;3.95;3.00;;;;;;;17.87;83.03;99238.99;1744299;82;21032;-79
2022/07/22 00:41:26;;;;;;;4.05;3.27;;;;;;;17.86;83.02;99236.79;1744309;82;21475;-79
2022/07/22 00:44:04;;;;;;;4.47;3.25;;;;;;;17.86;82.76;99238.61;1744156;82;21075;-79
2022/07/22 00:46:33;;;;;;;3.52;3.30;;;;;;;17.85;82.73;99235.56;1744652;82;21511;-79
2022/07/22 00:49:00;;;;;;;3.92;3.35;;;;;;;17.82;82.80;99232.16;1744333;82;21519;-77
2022/07/22 00:51:27;;;;;;;5.37;3.08;;;;;;;17.80;82.83;99234.08;1744392;82;21553;-80
2022/07/22 00:53:55;;;;;;;6.70;3.37;;;;;;;17.75;82.86;99237.55;1744396;82;21601;-81
2022/07/22 00:56:21;;;;;;;3.42;3.12;;;;;;;17.74;82.84;99238.97;1744270;82;21072;-79
2022/07/22 00:58:49;;;;;;;3.70;3.35;;;;;;;17.70;83.07;99238.80;1744425;82;21144;-79
2022/07/22 01:01:16;;;;;;;4.97;3.37;;;;;;;17.61;83.36;99237.13;1744345;82;21116;-80
2022/07/22 01:03:43;;;;;;;3.42;3.10;;;;;;;17.57;83.57;99238.80;1744293;82;21130;-80
2022/07/22 01:06:09;;;;;;;5.83;3.62;;;;;;;17.53;83.65;99242.61;1744095;82;21142;-80
2022/07/22 01:08:36;;;;;;;4.20;3.30;;;;;;;17.50;83.72;99233.05;1744148;82;21099;-83
2022/07/22 01:11:13;;;;;;;3.27;3.02;;;;;;;17.49;83.62;99231.33;1691964;82;21152;-83
2022/07/22 01:13:42;;;;;;;4.42;3.08;;;;;;;17.50;83.64;99235.70;1744194;82;21003;-83
2022/07/22 01:16:10;;;;;;;5.72;3.45;;;;;;;17.50;83.63;99232.17;1744556;82;21059;-83
2022/07/22 01:18:38;;;;;;;3.98;3.58;;;;;;;17.47;83.78;99233.25;1751871;80;20976;-79
2022/07/22 01:21:06;;;;;;;3.58;3.20;;;;;;;17.41;84.01;99234.49;1781275;80;21047;-79
2022/07/22 01:23:34;;;;;;;5.10;3.27;;;;;;;17.37;84.39;99239.66;1781045;80;21109;-80
2022/07/22 01:26:00;;;;;;;3.25;2.95;;;;;;;17.36;84.35;99244.59;1781003;80;21042;-80
2022/07/22 01:28:28;;;;;;;3.70;3.35;;;;;;;17.35;84.34;99244.23;1768874;80;21125;-79
2022/07/22 01:30:55;;;;;;;3.47;2.98;;;;;;;17.35;84.11;99236.71;1747683;82;21068;-80
2022/07/22 01:33:22;;;;;;;3.55;2.95;;;;;;;17.34;84.04;99237.20;1747876;82;21021;-81
2022/07/22 01:35:50;;;;;;;3.42;3.12;;;;;;;17.35;84.16;99241.58;1748045;82;21550;-78
2022/07/22 01:38:16;;;;;;;4.72;3.60;;;;;;;17.31;84.23;99240.06;1747661;82;21029;-80
2022/07/22 01:40:43;;;;;;;6.25;3.80;;;;;;;17.29;84.18;99241.97;1748040;82;21098;-80
2022/07/22 01:43:11;;;;;;;3.50;3.20;;;;;;;17.29;84.10;99247.30;1747546;82;21017;-81
2022/07/22 01:45:37;;;;;;;7.65;3.52;;;;;;;17.29;84.10;99247.30;1747952;82;21073;-79
2022/07/22 01:48:05;;;;;;;4.08;3.02;;;;;;;17.27;84.35;99251.87;1747781;82;21703;-80
2022/07/22 01:50:31;;;;;;;3.83;3.40;;;;;;;17.23;84.46;99249.02;1747479;82;21112;-79
2022/07/22 01:52:58;;;;;;;3.52;3.22;;;;;;;17.18;84.89;99253.79;1747994;82;21006;-80
2022/07/22 01:55:25;;;;;;;3.17;2.98;;;;;;;17.16;84.84;99261.02;1747641;82;21124;-80
2022/07/22 01:57:52;;;;;;;4.47;3.50;;;;;;;17.16;84.93;99258.36;1747889;82;22017;-79
2022/07/22 02:00:20;;;;;;;4.92;3.80;;;;;;;17.15;84.88;99257.52;1746666;82;21206;-79
2022/07/22 02:02:47;;;;;;;4.22;3.30;;;;;;;17.14;85.01;99260.28;1747563;82;21100;-80
2022/07/22 02:05:14;;;;;;;3.90;3.35;;;;;;;17.13;85.27;99253.25;1747686;82;20993;-78
2022/07/22 02:07:40;;;;;;;3.40;3.10;;;;;;;17.09;85.38;99256.59;1747677;82;21697;-78
2022/07/22 02:10:09;;;;;;;5.45;3.35;;;;;;;17.06;85.49;99261.64;1747620;82;21120;-79
2022/07/22 02:12:37;;;;;;;4.72;3.55;;;;;;;17.04;85.66;99250.23;1747621;82;21487;-80
2022/07/22 02:15:06;;;;;;;4.40;3.40;;;;;;;17.03;85.71;99259.18;1748080;82;21037;-79
2022/07/22 02:17:34;;;;;;;3.83;3.52;;;;;;;17.03;85.50;99259.18;1747681;82;22276;-80
2022/07/22 02:20:03;;;;;;;4.00;3.60;;;;;;;17.04;85.40;99266.19;1747720;82;21077;-80
2022/07/22 02:22:30;;;;;;;3.58;3.00;;;;;;;17.04;85.21;99264.01;1747508;82;21060;-80
2022/07/22 02:24:56;;;;;;;5.03;3.35;;;;;;;17.02;85.08;99261.45;1747709;82;21772;-80
2022/07/22 02:27:23;;;;;;;4.92;3.80;;;;;;;17.00;85.04;99267.35;1747474;82;21662;-80
2022/07/22 02:29:49;;;;;;;3.70;3.17;;;;;;;16.99;85.12;99266.12;1747785;82;21069;-80
2022/07/22 02:32:16;;;;;;;4.40;3.30;;;;;;;16.97;85.01;99264.89;1747621;82;21021;-80
2022/07/22 02:34:43;;;;;;;4.03;3.70;;;;;;;16.96;84.80;99264.98;1747741;82;21068;-80
2022/07/22 02:37:11;;;;;;;7.33;3.87;;;;;;;16.96;84.92;99277.78;1747583;82;21108;-79
2022/07/22 02:39:39;;;;;;;6.60;3.40;;;;;;;16.94;85.02;99277.04;1747607;82;21069;-81
2022/07/22 02:42:06;;;;;;;6.55;3.60;;;;;;;16.89;85.07;99280.47;1747513;82;21081;-77
2022/07/22 02:44:32;;;;;;;5.45;3.60;;;;;;;16.85;85.56;99278.98;1747813;82;21105;-81
2022/07/22 02:46:59;;;;;;;4.37;3.85;;;;;;;16.82;85.82;99287.95;1747708;82;21041;-83
2022/07/22 02:49:28;;;;;;;4.70;3.70;;;;;;;16.80;86.02;99289.02;1747591;82;21216;-81
2022/07/22 02:51:55;;;;;;;4.72;3.95;;;;;;;16.82;86.33;99287.11;1747501;82;21073;-82
2022/07/22 02:54:22;;;;;;;5.80;4.05;;;;;;;16.82;86.87;99281.80;1747954;82;21058;-81
2022/07/22 02:56:49;;;;;;;7.72;4.15;;;;;;;16.79;86.94;99281.98;1747507;82;21120;-82
2022/07/22 02:59:17;;;;;;;3.87;3.50;;;;;;;16.77;87.53;99282.08;1747608;82;21045;-81
2022/07/22 03:01:44;;;;;;;4.58;4.22;;;;;;;16.76;87.57;99279.52;1747780;82;21131;-82
2022/07/22 03:04:11;;;;;;;6.67;4.20;;;;;;;16.77;88.04;99286.55;1747395;82;21144;-80
2022/07/22 03:06:39;;;;;;;5.47;4.37;;;;;;;16.78;88.33;99288.23;1747518;82;21112;-81
2022/07/22 03:09:08;;;;;;;8.83;3.92;;;;;;;16.77;88.67;99287.88;1747316;82;21088;-81
2022/07/22 03:11:37;;;;;;;4.95;3.77;;;;;;;16.75;88.81;99293.29;1747847;82;21087;-80
2022/07/22 03:14:04;;;;;;;7.37;4.15;;;;;;;16.79;88.88;99292.13;1747807;82;21136;-80
2022/07/22 03:16:31;;;;;;;7.62;4.60;;;;;;;16.84;88.87;99298.48;1748386;80;21041;-80
2022/07/22 03:18:58;;;;;;;7.35;4.35;;;;;;;16.85;89.08;99298.42;1733749;82;21076;-81
2022/07/22 03:21:25;;;;;;;5.05;4.53;;;;;;;16.87;89.05;99293.02;1733612;82;21130;-81
2022/07/22 03:23:53;;;;;;;4.40;3.92;;;;;;;16.92;89.23;99292.72;1705417;80;21136;-82
2022/07/22 03:26:21;;;;;;;9.68;4.62;;;;;;;16.95;89.44;99289.88;1735934;82;21161;-80
2022/07/22 03:28:49;;;;;;;7.72;4.40;;;;;;;16.95;89.62;99285.89;1735560;82;21053;-80
2022/07/22 03:31:16;;;;;;;6.30;4.33;;;;;;;16.95;89.55;99293.38;1735882;82;21568;-81
2022/07/22 03:33:43;;;;;;;4.50;4.10;;;;;;;16.98;89.53;99293.18;1735829;82;21050;-81
2022/07/22 03:36:10;;;;;;;8.90;4.78;;;;;;;17.00;89.48;99293.92;1735721;82;21129;-82
2022/07/22 03:38:39;;;;;;;5.62;4.65;;;;;;;17.04;89.40;99291.43;1735871;82;21588;-80
2022/07/22 03:41:06;;;;;;;5.17;4.67;;;;;;;17.06;89.38;99286.89;1735638;82;21530;-81
2022/07/22 03:43:33;;;;;;;8.13;4.17;;;;;;;17.08;89.43;99286.31;1735961;82;21600;-81
2022/07/22 03:46:00;;;;;;;6.92;4.00;;;;;;;17.09;89.44;99289.33;1714766;82;21614;-80
2022/07/22 03:48:27;;;;;;;4.65;4.17;;;;;;;17.13;89.36;99290.01;1735826;82;21077;-82
2022/07/22 03:50:54;;;;;;;6.15;3.75;;;;;;;17.17;89.28;99293.31;1735962;82;21525;-82
2022/07/22 03:53:20;;;;;;;4.60;4.20;;;;;;;17.19;89.33;99290.91;1735700;82;21054;-81
2022/07/22 03:55:47;;;;;;;6.55;3.92;;;;;;;17.22;89.07;99289.88;1736143;82;21088;-81
2022/07/22 03:58:17;;;;;;;5.67;4.70;;;;;;;17.27;88.96;99291.75;1735976;82;21085;-81
2022/07/22 04:00:44;;;;;;;5.53;4.20;;;;;;;17.34;89.02;99294.86;1735887;82;21054;-81
2022/07/22 04:03:11;;;;;;;8.70;3.90;;;;;;;17.41;88.86;99294.81;1735818;82;21037;-82
2022/07/22 04:05:56;;;;;;;;;;;;;;;17.46;88.57;99306.84;1738138;82;21054;-81
2022/07/22 04:08:26;;;;;;;8.58;4.65;;;;;;;17.55;88.34;99305.86;1735498;82;20516;-82
2022/07/22 04:10:54;;;;;;;8.85;4.15;;;;;;;17.56;87.84;99307.09;1735406;82;21599;-83
2022/07/22 04:13:22;;;;;;;4.50;4.10;;;;;;;17.60;87.47;99313.92;1735972;82;21057;-82
2022/07/22 04:15:52;;;;;;;6.35;3.80;;;;;;;17.63;87.02;99318.17;1735912;82;21129;-82
2022/07/22 04:18:20;;;;;;;7.37;4.00;;;;;;;17.66;86.74;99316.64;1735588;82;21160;-83
2022/07/22 04:20:47;;;;;;;5.72;3.85;;;;;;;17.71;86.46;99311.86;1735635;82;21081;-82
2022/07/22 04:23:22;;;;;;;5.72;3.85;;;;;;;17.76;86.44;99311.08;1735865;82;21127;-82
2022/07/22 04:25:51;;;;;;;10.03;4.20;;;;;;;17.79;86.39;99308.20;1735486;82;21133;-82
2022/07/22 04:28:18;;;;;;;4.45;3.90;;;;;;;17.77;86.23;99315.91;1735489;82;22159;-80
2022/07/22 04:30:44;;;;;;;5.30;3.98;;;;;;;17.80;86.05;99319.24;1743162;82;21049;-81
2022/07/22 04:33:11;;;;;;;7.37;3.98;;;;;;;17.87;86.04;99308.19;1743977;82;21074;-80
2022/07/22 04:35:38;;;;;;;5.58;3.90;;;;;;;17.92;85.89;99304.73;1743794;82;21088;-83
2022/07/22 04:38:10;;;;;;;6.65;4.45;;;;;;;17.94;85.57;99309.50;1742729;82;21074;-81
2022/07/22 04:40:37;;;;;;;5.15;4.65;;;;;;;17.92;85.40;99311.39;1743883;82;21190;-81
2022/07/22 04:43:04;;;;;;;6.10;3.98;;;;;;;17.91;85.54;99319.02;1743745;82;20994;-82
2022/07/22 04:45:30;;;;;;;4.47;4.10;;;;;;;17.97;85.85;99319.91;1743840;82;21265;-83
2022/07/22 04:47:57;;;;;;;8.78;5.05;;;;;;;18.01;85.73;99314.77;1744068;82;21100;-84
2022/07/22 04:50:23;;;;;;;7.83;3.87;;;;;;;18.03;85.38;99319.50;1744045;82;21979;-83
2022/07/22 04:52:51;;;;;;;4.40;4.00;;;;;;;18.07;85.32;99316.14;1743039;82;21132;-83
2022/07/22 04:55:20;;;;;;;5.22;4.03;;;;;;;18.11;85.30;99324.31;1743560;82;21054;-82
2022/07/22 04:57:47;;;;;;;5.87;3.65;;;;;;;18.18;85.22;99324.25;1743768;82;21077;-82
2022/07/22 05:00:16;;;;;;;5.00;3.70;;;;;;;18.23;85.20;99318.61;1743803;82;21084;-83
2022/07/22 05:02:45;;;;;;;4.80;3.85;;;;;;;18.32;84.76;99317.95;1743225;82;21030;-79
2022/07/22 05:05:12;;;;;;;4.95;3.70;;;;;;;18.41;84.54;99323.98;1743916;82;21702;-82
2022/07/22 05:07:40;;;;;;;6.47;4.10;;;;;;;18.54;84.42;99325.28;1743616;82;21116;-81
2022/07/22 05:10:08;;;;;;;4.67;3.60;;;;;;;18.63;83.77;99321.14;1743622;82;21041;-82
2022/07/22 05:12:34;;;;;;;10.78;3.92;;;;;;;18.70;83.53;99322.40;1743544;82;21080;-82
2022/07/22 05:15:01;;;;;;;4.20;3.62;;;;;;;18.76;83.39;99319.27;1743931;82;21128;-82
2022/07/22 05:17:28;;;;;;;5.90;3.55;;;;;;;18.86;83.14;99319.50;1743884;82;21147;-81
2022/07/22 05:20:04;;;;;;;3.37;3.12;;;;;;;18.96;82.77;99318.36;1741617;82;20994;-82
2022/07/22 05:22:31;;;;;;;10.72;3.20;;;;;;;19.06;82.23;99324.27;1714404;82;21486;-83
2022/07/22 05:24:58;;;;;;;5.83;3.47;;;;;;;19.15;81.36;99326.73;1748780;80;21444;-81
2022/07/22 05:27:25;;;;;;;3.50;3.20;;;;;;;19.22;80.54;99329.31;1781346;80;21020;-81
2022/07/22 05:29:51;;;;;;;5.05;3.22;;;;;;;19.30;80.38;99329.60;1744322;80;21127;-82
2022/07/22 05:32:18;;;;;;;4.47;3.40;;;;;;;19.41;79.99;99327.95;1781352;80;20987;-82
2022/07/22 05:34:45;;;;;;;4.60;3.20;;;;;;;19.49;79.48;99325.56;1769477;80;21012;-82
2022/07/22 05:37:13;;;;;;;5.12;3.47;;;;;;;19.57;79.48;99327.64;1767772;81;21119;-82
2022/07/22 05:39:39;;;;;;;3.65;3.08;;;;;;;19.65;79.24;99322.13;1767968;81;21503;-83
2022/07/22 05:42:07;;;;;;;5.28;3.00;;;;;;;19.73;78.51;99328.69;1768115;81;21847;-83
2022/07/22 05:44:35;;;;;;;6.10;2.50;;;;;;;19.83;78.40;99336.40;1768067;81;21453;-82
2022/07/22 05:47:01;;;;;;;2.85;2.47;;;;;;;19.91;78.03;99340.67;1768171;81;21083;-83
2022/07/22 05:49:28;;;;;;;2.98;2.70;;;;;;;20.00;77.92;99338.63;1767864;81;21106;-83
2022/07/22 05:52:00;;;;;;;2.80;2.60;;;;;;;20.08;77.50;99338.54;1767346;81;21024;-82
2022/07/22 05:54:28;;;;;;;7.55;2.58;;;;;;;20.17;77.40;99344.49;1767658;81;21090;-82
2022/07/22 05:56:55;;;;;;;4.33;2.60;;;;;;;20.25;76.10;99342.58;1768128;81;21515;-82
2022/07/22 05:59:21;;;;;;;2.65;2.20;;;;;;;20.32;75.81;99336.61;1767791;81;21060;-83
2022/07/22 06:01:48;;;;;;;5.80;2.15;;;;;;;20.37;75.44;99333.09;1767877;81;21012;-83
2022/07/22 06:04:16;;;;;;;2.00;1.90;;;;;;;20.45;74.50;99326.32;1765157;81;21467;-82
2022/07/22 06:06:45;;;;;;;4.35;2.10;;;;;;;20.51;73.85;99332.50;1767964;81;21100;-82
2022/07/22 06:09:11;;;;;;;3.80;2.15;;;;;;;20.58;73.94;99331.06;1740192;81;21985;-82
2022/07/22 06:11:40;;;;;;;2.58;1.70;;;;;;;20.67;73.53;99324.16;1767827;81;21064;-82
2022/07/22 06:14:07;;;;;;;3.77;1.80;;;;;;;20.76;72.23;99328.30;1767779;81;21012;-82
2022/07/22 06:16:34;;;;;;;1.77;1.62;;;;;;;20.83;71.17;99321.97;1767836;81;21484;-82
2022/07/22 06:19:02;;;;;;;6.08;2.02;;;;;;;20.90;70.74;99320.49;1767886;81;22166;-83
2022/07/22 06:21:29;;;;;;;1.82;1.50;;;;;;;20.98;70.15;99326.57;1768046;81;21483;-82
2022/07/22 06:23:55;;;;;;;1.52;1.42;;;;;;;21.05;69.50;99328.27;1767642;81;21076;-84
2022/07/22 06:26:22;;;;;;;5.50;1.57;;;;;;;21.11;68.78;99329.08;1768053;81;21064;-82
2022/07/22 06:28:50;;;;;;;6.92;1.72;;;;;;;21.16;68.58;99325.54;1767967;81;21016;-82
2022/07/22 06:31:17;;;;;;;1.85;1.72;;;;;;;21.22;68.34;99325.55;1758660;81;21141;-78
2022/07/22 06:33:44;;;;;;;2.58;1.75;;;;;;;21.28;68.34;99323.69;1757810;81;21075;-84
2022/07/22 06:36:11;;;;;;;2.58;1.60;;;;;;;21.32;67.28;99324.65;1757585;81;21024;-83
2022/07/22 06:38:38;;;;;;;3.15;1.30;;;;;;;21.38;67.00;99327.30;1738342;81;21586;-83
2022/07/22 06:41:13;;;;;;;2.47;1.90;;;;;;;21.42;65.37;99311.36;1697658;81;20996;-84
2022/07/22 06:43:47;;;;;;;;;;;;;;;21.47;66.49;99325.25;1758397;81;21153;-82
2022/07/22 06:46:32;;;;;;;2.95;1.40;;;;;;;21.55;66.57;99327.77;1757402;81;20633;-82
2022/07/22 06:48:59;;;;;;;2.02;1.25;;;;;;;21.62;64.49;99317.77;1757809;81;21488;-83
2022/07/22 06:51:26;;;;;;;2.77;1.35;;;;;;;21.67;63.93;99322.70;1757372;81;21524;-83
2022/07/22 06:53:54;;;;;;;5.90;1.32;;;;;;;21.70;61.98;99325.14;1757664;81;21016;-82
2022/07/22 06:56:20;;;;;;;2.52;1.00;;;;;;;21.72;61.85;99331.23;1757551;81;21107;-84
2022/07/22 06:58:47;;;;;;;4.00;1.32;;;;;;;21.75;61.64;99328.27;1738495;81;21521;-84
2022/07/22 07:01:14;;;;;;;1.05;1.00;;;;;;;21.81;61.71;99329.11;1757400;81;21115;-82
2022/07/22 07:03:51;;;;;;;1.67;1.20;;;;;;;21.86;61.10;99336.26;1757445;81;21033;-82
2022/07/22 07:06:20;;;;;;;1.57;1.07;;;;;;;21.89;59.75;99337.84;1757632;81;21044;-78
2022/07/22 07:08:54;;;;;;;1.40;1.30;;;;;;;21.96;59.24;99343.53;1757034;81;22134;-82
2022/07/22 07:11:20;;;;;;;2.15;1.90;;;;;;;22.02;60.12;99343.86;1757667;81;21543;-82
2022/07/22 07:13:47;;;;;;;2.20;1.70;;;;;;;22.13;60.74;99339.41;1757479;81;21144;-82
2022/07/22 07:16:15;;;;;;;1.95;1.30;;;;;;;22.21;60.47;99340.45;1753526;80;47370;-80
2022/07/22 07:18:41;;;;;;;2.37;1.40;;;;;;;22.30;59.60;99343.35;1697927;82;21063;-80
2022/07/22 07:21:10;;;;;;;1.95;1.30;;;;;;;22.34;58.18;99342.09;1678675;85;21083;-80
2022/07/22 07:23:36;;;;;;;2.20;1.00;;;;;;;22.35;56.91;99338.44;1678775;85;21531;-81
2022/07/22 07:26:03;;;;;;;1.37;1.20;;;;;;;22.36;57.51;99342.80;1685420;84;21513;-79
2022/07/22 07:28:30;;;;;;;1.42;1.00;;;;;;;22.40;57.91;99344.25;1772587;80;21495;-79
2022/07/22 07:30:59;;;;;;;1.15;1.02;;;;;;;22.48;57.65;99339.55;1771951;80;20988;-80
2022/07/22 07:33:25;;;;;;;4.80;1.30;;;;;;;22.55;57.89;99342.91;1772771;80;21738;-79
2022/07/22 07:35:53;;;;;;;2.67;1.05;;;;;;;22.61;56.84;99338.36;1772900;80;21074;-80
2022/07/22 07:38:21;;;;;;;1.87;1.00;;;;;;;22.67;56.39;99341.48;1771690;80;21083;-84
2022/07/22 07:40:48;;;;;;;1.77;1.10;;;;;;;22.73;56.59;99347.63;1773136;80;21011;-81
2022/07/22 07:43:14;;;;;;;1.10;0.80;;;;;;;22.81;55.96;99351.83;1772686;80;21094;-82
2022/07/22 07:45:41;;;;;;;1.55;0.80;;;;;;;22.85;56.41;99347.04;1772656;80;22337;-82
2022/07/22 07:48:08;;;;;;;1.55;0.80;;;;;;;22.92;55.57;99355.76;1772998;80;20985;-82
2022/07/22 07:50:35;;;;;;;1.05;0.80;;;;;;;22.99;53.55;99352.87;1772619;80;20996;-82
2022/07/22 07:53:02;;;;;;;1.37;0.88;;;;;;;23.03;53.49;99356.63;1773021;80;21055;-82
2022/07/22 07:55:30;;;;;;;1.05;0.98;;;;;;;23.07;54.49;99362.13;1772671;80;21044;-80
2022/07/22 07:57:57;;;;;;;2.35;0.90;;;;;;;23.13;53.71;99359.75;1773130;80;21169;-83
2022/07/22 08:00:28;;;;;;;0.90;0.70;;;;;;;23.18;52.37;99356.16;1772750;80;21071;-82
2022/07/22 08:02:55;;;;;;;0.80;0.80;;;;;;;23.21;52.33;99359.05;1772623;80;21016;-84
2022/07/22 08:05:22;;;;;;;3.60;1.17;;;;;;;23.25;51.84;99353.77;1772718;80;21401;-78
2022/07/22 08:07:49;;;;;;;2.90;1.10;;;;;;;23.28;51.44;99353.47;1772665;80;21000;-82
2022/07/22 08:10:16;;;;;;;1.17;0.90;;;;;;;23.33;51.87;99355.28;1773073;80;21075;-82
2022/07/22 08:12:57;;;;;;;1.62;0.80;;;;;;;23.36;50.54;99356.81;1673327;84;21119;-84
2022/07/22 08:15:35;;;;;;;6.83;1.00;;;;;;;23.35;50.34;99352.42;1771649;80;21024;-83
2022/07/22 08:18:04;;;;;;;6.92;1.00;;;;;;;23.36;50.58;99361.69;1772241;80;21107;-83
2022/07/22 08:20:30;;;;;;;3.45;1.00;;;;;;;23.41;50.96;99373.86;1751143;80;21479;-81
2022/07/22 08:22:57;;;;;;;10.15;0.80;;;;;;;23.44;50.44;99368.22;1773094;80;21223;-82
2022/07/22 08:25:26;;;;;;;1.40;1.20;;;;;;;23.50;51.51;99360.45;1772854;80;20977;-83
2022/07/22 08:27:52;;;;;;;2.45;0.80;;;;;;;23.62;50.70;99371.91;1773131;80;21506;-82
2022/07/22 08:30:22;;;;;;;0.70;0.70;;;;;;;23.71;50.39;99379.11;1772839;80;21487;-82
2022/07/22 08:32:49;;;;;;;2.12;1.22;;;;;;;23.81;51.09;99387.68;1772951;80;21039;-84
2022/07/22 08:35:18;;;;;;;3.30;1.10;;;;;;;23.86;50.25;99371.52;1772756;80;20972;-81
2022/07/22 08:37:47;;;;;;;0.85;0.85;;;;;;;23.88;49.83;99380.77;1773016;80;21024;-81
2022/07/22 08:40:16;;;;;;;8.13;1.00;;;;;;;23.87;50.03;99370.53;1772953;80;21104;-81
2022/07/22 08:42:44;;;;;;;4.53;0.80;;;;;;;23.89;49.85;99369.05;1773214;80;21602;-83
2022/07/22 08:45:11;;;;;;;1.25;1.02;;;;;;;23.91;48.35;99370.59;1772799;80;21118;-82
2022/07/22 08:47:38;;;;;;;1.32;0.80;;;;;;;23.88;48.00;99369.52;1773202;80;21118;-81
2022/07/22 08:50:13;;;;;;;4.55;0.82;;;;;;;23.85;48.12;99368.96;1722198;80;21059;-82
2022/07/22 08:52:53;;;;;;;1.77;1.00;;;;;;;23.89;48.37;99371.73;1772124;80;21067;-83
2022/07/22 08:55:19;;;;;;;1.40;1.15;;;;;;;24.00;49.62;99372.07;1772836;80;21083;-82
2022/07/22 08:57:47;;;;;;;2.60;0.93;;;;;;;24.13;49.90;99379.84;1773043;80;21628;-82
2022/07/22 09:00:20;;;;;;;1.47;0.88;;;;;;;24.24;49.51;99369.78;1772822;80;21218;-82
2022/07/22 09:02:46;;;;;;;3.20;0.80;;;;;;;24.34;47.57;99376.45;1772884;80;21492;-81
2022/07/22 09:05:16;;;;;;;2.85;0.70;;;;;;;24.42;49.14;99374.41;1772907;80;20988;-82
2022/07/22 09:07:44;;;;;;;0.57;0.57;;;;;;;24.53;48.06;99371.55;1772670;80;20984;-85
2022/07/22 09:10:22;;;;;;;5.87;0.70;;;;;;;24.60;45.59;99375.87;1771944;80;21051;-82
2022/07/22 09:12:59;;;;;;;3.08;0.75;;;;;;;24.56;44.86;99381.19;1755933;80;21787;-83
2022/07/22 09:15:53;;;;;;;5.42;0.70;;;;;;;24.53;44.59;99367.98;1770102;80;21119;-81
2022/07/22 09:18:52;;;;;;;1.10;0.68;;;;;;;24.52;45.17;99379.76;1741958;82;21075;-84
2022/07/22 09:21:23;;;;;;;4.58;0.60;;;;;;;24.56;45.47;99379.84;1741002;82;21123;-83
2022/07/22 09:24:01;;;;;;;1.60;0.60;;;;;;;24.60;44.98;99378.56;1740694;82;21008;-83
2022/07/22 09:26:37;;;;;;;4.60;0.62;;;;;;;24.64;45.25;99381.30;1742251;82;21093;-81
2022/07/22 09:29:21;;;;;;;1.12;0.68;;;;;;;24.66;43.99;99366.73;1742155;82;21036;-81
2022/07/22 09:32:03;;;;;;;1.55;0.78;;;;;;;24.66;44.84;99385.56;1763210;80;21126;-83
2022/07/22 09:34:34;;;;;;;3.47;0.62;;;;;;;24.71;44.86;99381.05;1745197;80;21066;-84
2022/07/22 09:37:02;;;;;;;2.85;0.72;;;;;;;24.77;45.02;99381.82;1779073;80;21612;-82
2022/07/22 09:39:32;;;;;;;5.53;0.85;;;;;;;24.84;44.53;99386.95;1780944;80;21189;-80
2022/07/22 09:42:02;;;;;;;3.40;1.02;;;;;;;24.87;44.24;99380.44;1781338;80;21039;-81
2022/07/22 09:44:30;;;;;;;0.80;0.62;;;;;;;24.93;44.38;99372.27;1781062;80;20991;-82
2022/07/22 09:46:58;;;;;;;4.37;0.80;;;;;;;25.00;44.58;99380.11;1780474;80;21103;-80
2022/07/22 09:49:42;;;;;;;3.15;0.85;;;;;;;25.10;45.17;99387.64;1779188;80;21063;-81
2022/07/22 09:52:27;;;;;;;2.95;0.80;;;;;;;25.24;45.53;99385.44;1781456;80;21097;-76
2022/07/22 09:55:07;;;;;;;0.62;0.62;;;;;;;25.36;45.02;99382.91;1780824;80;21023;-81
2022/07/22 09:57:34;;;;;;;2.70;0.80;;;;;;;25.47;44.69;99384.05;1781080;80;21109;-81
2022/07/22 10:00:01;;;;;;;1.65;0.60;;;;;;;25.52;43.35;99380.39;1780984;80;21074;-83
2022/07/22 10:02:59;;;;;;;2.25;0.65;;;;;;;25.52;42.91;99380.88;1781114;80;20977;-79
2022/07/22 10:05:30;;;;;;;0.80;0.70;;;;;;;25.50;42.50;99386.44;1781060;80;22313;-79
2022/07/22 10:07:57;;;;;;;0.60;0.60;;;;;;;25.52;42.97;99376.35;1780755;80;21075;-82
2022/07/22 10:10:26;;;;;;;0.80;0.80;;;;;;;25.58;43.49;99379.76;1781231;80;21142;-82
2022/07/22 10:12:55;;;;;;;1.60;0.60;;;;;;;25.67;42.43;99378.02;1750509;80;21115;-82
2022/07/22 10:15:23;;;;;;;0.60;0.60;;;;;;;25.73;42.11;99381.94;1750390;80;21141;-80
2022/07/22 10:17:53;;;;;;;0.75;0.60;;;;;;;25.77;42.30;99388.70;1781135;80;21118;-79
2022/07/22 10:20:24;;;;;;;3.72;0.70;;;;;;;25.82;42.08;99392.28;1780862;80;21109;-80
2022/07/22 10:23:02;;;;;;;1.05;0.70;;;;;;;25.85;42.53;99386.59;1780937;80;21118;-81
2022/07/22 10:25:34;;;;;;;4.25;0.78;;;;;;;25.92;42.59;99377.74;1780931;80;21075;-80
2022/07/22 10:28:04;;;;;;;3.02;0.80;;;;;;;26.00;41.99;99371.59;1778173;80;20948;-80
2022/07/22 10:30:38;;;;;;;6.03;0.72;;;;;;;26.09;42.50;99388.67;1780608;80;21123;-81
2022/07/22 10:33:12;;;;;;;2.83;0.60;;;;;;;26.15;42.13;99384.02;1772800;80;21036;-80
2022/07/22 10:35:56;;;;;;;1.25;0.68;;;;;;;26.20;42.07;99388.43;1772799;80;21005;-82
2022/07/22 10:38:23;;;;;;;0.50;0.50;;;;;;;26.26;41.99;99393.20;1773097;80;21062;-81
2022/07/22 10:40:58;;;;;;;0.78;0.57;;;;;;;26.29;41.26;99398.30;1772823;80;21115;-81
2022/07/22 10:43:27;;;;;;;4.20;0.85;;;;;;;26.30;41.29;99383.78;1773078;80;21101;-82
2022/07/22 10:45:59;;;;;;;4.53;0.70;;;;;;;26.32;41.54;99387.16;1772599;80;21063;-79
2022/07/22 10:48:43;;;;;;;1.35;0.80;;;;;;;26.39;41.46;99395.98;1773127;80;21083;-82
2022/07/22 10:51:25;;;;;;;4.67;0.88;;;;;;;26.43;42.10;99391.98;1772789;80;21039;-81
2022/07/22 10:54:03;;;;;;;0.98;0.80;;;;;;;26.49;42.10;99385.45;1772821;80;21054;-80
2022/07/22 10:56:35;;;;;;;2.15;0.88;;;;;;;26.57;42.59;99389.20;1772844;80;21081;-79
2022/07/22 10:59:14;;;;;;;2.95;0.68;;;;;;;26.65;41.12;99386.58;1772876;80;21047;-83
2022/07/22 11:01:43;;;;;;;4.35;0.80;;;;;;;26.65;40.93;99390.12;1772637;80;21048;-79
2022/07/22 11:04:22;;;;;;;3.70;1.10;;;;;;;26.67;40.86;99396.19;1772947;80;21055;-81
2022/07/22 11:06:53;;;;;;;1.40;0.80;;;;;;;26.66;41.28;99390.95;1772748;80;21000;-79
2022/07/22 11:09:22;;;;;;;3.05;0.65;;;;;;;26.65;40.47;99391.47;1771588;80;21090;-80
2022/07/22 11:11:53;;;;;;;1.15;0.70;;;;;;;26.65;41.24;99391.47;1772447;80;21755;-81
2022/07/22 11:14:31;;;;;;;0.80;0.50;;;;;;;26.72;41.43;99401.12;1771986;80;21578;-81
2022/07/22 11:17:00;;;;;;;1.37;0.55;;;;;;;26.79;40.93;99395.92;1772846;80;21483;-81
2022/07/22 11:19:29;;;;;;;4.28;0.70;;;;;;;26.85;41.10;99389.89;1773188;80;21000;-79
2022/07/22 11:21:59;;;;;;;1.98;0.68;;;;;;;26.92;40.02;99388.23;1772732;80;22752;-79
2022/07/22 11:24:25;;;;;;;1.60;0.57;;;;;;;26.93;40.71;99389.91;1772701;80;20996;-80
2022/07/22 11:26:55;;;;;;;1.00;0.90;;;;;;;26.98;40.14;99391.65;1772961;80;21059;-80
2022/07/22 11:29:33;;;;;;;3.10;0.70;;;;;;;26.99;40.11;99389.78;1772708;80;21067;-80
2022/07/22 11:32:01;;;;;;;1.20;1.10;;;;;;;27.08;41.32;99398.77;1772903;80;21165;-79
2022/07/22 11:34:28;;;;;;;1.15;0.70;;;;;;;27.20;40.73;99398.80;1749690;80;21667;-80
2022/07/22 11:36:55;;;;;;;0.75;0.72;;;;;;;27.27;39.87;99397.16;1735880;82;21568;-82
2022/07/22 11:39:25;;;;;;;0.85;0.70;;;;;;;27.34;40.94;99387.41;1735760;82;21999;-79
2022/07/22 11:41:53;;;;;;;1.27;0.70;;;;;;;27.45;39.70;99388.94;1735769;82;21541;-82
2022/07/22 11:44:25;;;;;;;2.37;0.90;;;;;;;27.47;38.96;99397.76;1735953;82;21104;-80